sensor_id;sensor_type;location;lat;lon;timestamp;pressure;altitude;pressure_sealevel;temperature;humidity
35655;BME280;21773;50.010;19.972;2023-10-13T00:00:36;98807.16;;;19.84;100.00
35655;BME280;21773;50.010;19.972;2023-10-13T00:03:39;98789.41;;;19.76;100.00
35655;BME280;21773;50.010;19.972;2023-10-13T00:06:43;98810.16;;;19.87;100.00
35655;BME280;21773;50.010;19.972;2023-10-13T00:09:47;98814.53;;;19.88;100.00
35655;BME280;21773;50.010;19.972;2023-10-13T00:12:51;98808.78;;;19.85;100.00
35655;BME280;21773;50.010;19.972;2023-10-13T00:15:55;98802.22;;;19.86;100.00
35655;BME280;21773;50.010;19.972;2023-10-13T00:19:01;98806.34;;;19.83;100.00
35655;BME280;21773;50.010;19.972;2023-10-13T00:22:08;98804.38;;;19.89;100.00
35655;BME280;21773;50.010;19.972;2023-10-13T00:25:12;98806.00;;;19.90;100.00
35655;BME280;21773;50.010;19.972;2023-10-13T00:28:23;98804.34;;;19.94;100.00
35655;BME280;21773;50.010;19.972;2023-10-13T00:31:26;98807.06;;;19.94;100.00
35655;BME280;21773;50.010;19.972;2023-10-13T00:34:35;98791.19;;;19.96;100.00
35655;BME280;21773;50.010;19.972;2023-10-13T00:37:40;98787.91;;;19.94;100.00
35655;BME280;21773;50.010;19.972;2023-10-13T00:40:46;98797.25;;;19.93;100.00
35655;BME280;21773;50.010;19.972;2023-10-13T00:43:55;98797.25;;;19.93;100.00
35655;BME280;21773;50.010;19.972;2023-10-13T00:47:09;98796.44;;;19.93;100.00
35655;BME280;21773;50.010;19.972;2023-10-13T00:50:15;98793.44;;;19.89;100.00
35655;BME280;21773;50.010;19.972;2023-10-13T00:53:19;98805.50;;;19.88;100.00
35655;BME280;21773;50.010;19.972;2023-10-13T00:56:25;98800.88;;;19.83;100.00
35655;BME280;21773;50.010;19.972;2023-10-13T00:59:31;98793.22;;;19.80;100.00
35655;BME280;21773;50.010;19.972;2023-10-13T01:02:38;98801.19;;;19.77;100.00
35655;BME280;21773;50.010;19.972;2023-10-13T01:05:41;98788.94;;;19.69;100.00
35655;BME280;21773;50.010;19.972;2023-10-13T01:08:46;98790.06;;;19.63;100.00
35655;BME280;21773;50.010;19.972;2023-10-13T01:11:52;98784.63;;;19.58;100.00
35655;BME280;21773;50.010;19.972;2023-10-13T01:14:57;98784.09;;;19.51;100.00
35655;BME280;21773;50.010;19.972;2023-10-13T01:18:06;98780.31;;;19.47;100.00
35655;BME280;21773;50.010;19.972;2023-10-13T01:21:15;98775.41;;;19.39;100.00
35655;BME280;21773;50.010;19.972;2023-10-13T01:24:23;98783.91;;;19.32;100.00
35655;BME280;21773;50.010;19.972;2023-10-13T01:27:28;98768.09;;;19.24;100.00
35655;BME280;21773;50.010;19.972;2023-10-13T01:30:31;98779.03;;;19.24;100.00
35655;BME280;21773;50.010;19.972;2023-10-13T01:33:33;98766.72;;;19.22;100.00
35655;BME280;21773;50.010;19.972;2023-10-13T01:36:38;98769.47;;;19.17;100.00
35655;BME280;21773;50.010;19.972;2023-10-13T01:39:43;98773.84;;;19.18;100.00
35655;BME280;21773;50.010;19.972;2023-10-13T01:42:49;98774.44;;;19.15;100.00
35655;BME280;21773;50.010;19.972;2023-10-13T01:45:57;98771.16;;;19.13;100.00
35655;BME280;21773;50.010;19.972;2023-10-13T01:48:59;98771.97;;;19.13;100.00
35655;BME280;21773;50.010;19.972;2023-10-13T01:52:04;98770.88;;;19.14;100.00
35655;BME280;21773;50.010;19.972;2023-10-13T01:55:09;98777.97;;;19.15;100.00
35655;BME280;21773;50.010;19.972;2023-10-13T01:58:14;98769.47;;;19.17;100.00
35655;BME280;21773;50.010;19.972;2023-10-13T02:01:17;98762.09;;;19.17;100.00
35655;BME280;21773;50.010;19.972;2023-10-13T02:04:28;98758.28;;;19.18;100.00
35655;BME280;21773;50.010;19.972;2023-10-13T02:07:34;98747.66;;;19.12;100.00
35655;BME280;21773;50.010;19.972;2023-10-13T02:10:42;98756.13;;;19.15;100.00
35655;BME280;21773;50.010;19.972;2023-10-13T02:13:45;98755.00;;;19.16;100.00
35655;BME280;21773;50.010;19.972;2023-10-13T02:16:51;98751.44;;;19.16;100.00
35655;BME280;21773;50.010;19.972;2023-10-13T02:19:57;98748.47;;;19.12;100.00
35655;BME280;21773;50.010;19.972;2023-10-13T02:22:59;98751.19;;;19.12;100.00
35655;BME280;21773;50.010;19.972;2023-10-13T02:26:04;98748.19;;;19.14;100.00
35655;BME280;21773;50.010;19.972;2023-10-13T02:29:13;98741.09;;;19.08;100.00
35655;BME280;21773;50.010;19.972;2023-10-13T02:32:20;98737.00;;;19.10;100.00
35655;BME280;21773;50.010;19.972;2023-10-13T02:35:22;98750.69;;;19.10;100.00
35655;BME280;21773;50.010;19.972;2023-10-13T02:38:32;98747.41;;;19.08;100.00
35655;BME280;21773;50.010;19.972;2023-10-13T02:41:45;98747.41;;;19.08;100.00
35655;BME280;21773;50.010;19.972;2023-10-13T02:44:51;98747.41;;;19.08;100.00
35655;BME280;21773;50.010;19.972;2023-10-13T02:47:54;98744.41;;;19.10;100.00
35655;BME280;21773;50.010;19.972;2023-10-13T02:51:14;98741.66;;;19.10;100.00
35655;BME280;21773;50.010;19.972;2023-10-13T02:54:19;98735.66;;;19.08;100.00
35655;BME280;21773;50.010;19.972;2023-10-13T02:57:23;98748.50;;;19.07;100.00
35655;BME280;21773;50.010;19.972;2023-10-13T03:00:27;98747.41;;;19.03;100.00
35655;BME280;21773;50.010;19.972;2023-10-13T03:03:34;98742.00;;;18.93;100.00
35655;BME280;21773;50.010;19.972;2023-10-13T03:06:37;98761.38;;;18.96;100.00
35655;BME280;21773;50.010;19.972;2023-10-13T03:09:42;98766.56;;;18.93;100.00
35655;BME280;21773;50.010;19.972;2023-10-13T03:12:54;98760.59;;;18.91;100.00
35655;BME280;21773;50.010;19.972;2023-10-13T03:15:58;98759.50;;;18.87;100.00
35655;BME280;21773;50.010;19.972;2023-10-13T03:19:01;98748.31;;;18.83;100.00
35655;BME280;21773;50.010;19.972;2023-10-13T03:22:10;98758.16;;;18.79;100.00
35655;BME280;21773;50.010;19.972;2023-10-13T03:25:15;98741.78;;;18.79;100.00
35655;BME280;21773;50.010;19.972;2023-10-13T03:28:27;98748.31;;;18.83;100.00
35655;BME280;21773;50.010;19.972;2023-10-13T03:31:36;98748.31;;;18.83;100.00
35655;BME280;21773;50.010;19.972;2023-10-13T03:34:41;98751.03;;;18.83;100.00
35655;BME280;21773;50.010;19.972;2023-10-13T03:37:54;98746.41;;;18.84;100.00
35655;BME280;21773;50.010;19.972;2023-10-13T03:40:57;98750.22;;;18.83;100.00
35655;BME280;21773;50.010;19.972;2023-10-13T03:44:10;98760.88;;;18.84;100.00
35655;BME280;21773;50.010;19.972;2023-10-13T03:47:19;98766.63;;;18.83;100.00
35655;BME280;21773;50.010;19.972;2023-10-13T03:50:28;98770.72;;;18.85;100.00
35655;BME280;21773;50.010;19.972;2023-10-13T03:53:35;98771.00;;;18.84;100.00
35655;BME280;21773;50.010;19.972;2023-10-13T03:56:38;98770.41;;;18.87;100.00
35655;BME280;21773;50.010;19.972;2023-10-13T03:59:44;98771.25;;;18.87;100.00
35655;BME280;21773;50.010;19.972;2023-10-13T04:02:50;98776.44;;;18.84;100.00
35655;BME280;21773;50.010;19.972;2023-10-13T04:06:07;98780.00;;;18.79;100.00
35655;BME280;21773;50.010;19.972;2023-10-13T04:09:20;98774.00;;;18.72;100.00
35655;BME280;21773;50.010;19.972;2023-10-13T04:12:40;98773.50;;;18.60;100.00
35655;BME280;21773;50.010;19.972;2023-10-13T04:16:03;98778.41;;;18.58;100.00
35655;BME280;21773;50.010;19.972;2023-10-13T04:19:37;98779.25;;;18.58;100.00
35655;BME280;21773;50.010;19.972;2023-10-13T04:23:00;98765.06;;;18.56;100.00
35655;BME280;21773;50.010;19.972;2023-10-13T04:26:17;98772.44;;;18.56;100.00
35655;BME280;21773;50.010;19.972;2023-10-13T04:29:24;98776.50;;;18.58;100.00
35655;BME280;21773;50.010;19.972;2023-10-13T04:32:48;98762.31;;;18.62;100.00
35655;BME280;21773;50.010;19.972;2023-10-13T04:36:09;98772.94;;;18.63;100.00
35655;BME280;21773;50.010;19.972;2023-10-13T04:39:16;98766.41;;;18.64;100.00
35655;BME280;21773;50.010;19.972;2023-10-13T04:42:31;98773.78;;;18.64;100.00
35655;BME280;21773;50.010;19.972;2023-10-13T04:45:52;98772.13;;;18.63;100.00
35655;BME280;21773;50.010;19.972;2023-10-13T04:48:58;98777.88;;;18.66;100.00
35655;BME280;21773;50.010;19.972;2023-10-13T04:52:04;98776.47;;;18.69;100.00
35655;BME280;21773;50.010;19.972;2023-10-13T04:55:29;98792.31;;;18.72;100.00
35655;BME280;21773;50.010;19.972;2023-10-13T04:59:01;98786.84;;;18.77;100.00
35655;BME280;21773;50.010;19.972;2023-10-13T05:02:34;98784.63;;;18.84;100.00
35655;BME280;21773;50.010;19.972;2023-10-13T05:05:56;98790.09;;;18.89;100.00
35655;BME280;21773;50.010;19.972;2023-10-13T05:09:13;98775.59;;;18.93;100.00
35655;BME280;21773;50.010;19.972;2023-10-13T05:12:34;98788.97;;;19.00;100.00
35655;BME280;21773;50.010;19.972;2023-10-13T05:15:54;98795.50;;;19.04;100.00
35655;BME280;21773;50.010;19.972;2023-10-13T05:19:15;98795.25;;;19.06;100.00
35655;BME280;21773;50.010;19.972;2023-10-13T05:22:37;98793.56;;;19.10;100.00
35655;BME280;21773;50.010;19.972;2023-10-13T05:26:01;98796.00;;;19.16;100.00
35655;BME280;21773;50.010;19.972;2023-10-13T05:29:21;98805.81;;;19.22;100.00
35655;BME280;21773;50.010;19.972;2023-10-13T05:32:42;98810.16;;;19.28;100.00
35655;BME280;21773;50.010;19.972;2023-10-13T05:36:08;98812.06;;;19.33;100.00
35655;BME280;21773;50.010;19.972;2023-10-13T05:39:30;98819.97;;;19.39;100.00
35655;BME280;21773;50.010;19.972;2023-10-13T05:42:51;98823.50;;;19.45;100.00
35655;BME280;21773;50.010;19.972;2023-10-13T05:46:08;98824.59;;;19.49;100.00
35655;BME280;21773;50.010;19.972;2023-10-13T05:49:28;98817.22;;;19.50;100.00
35655;BME280;21773;50.010;19.972;2023-10-13T05:52:51;98830.81;;;19.60;100.00
35655;BME280;21773;50.010;19.972;2023-10-13T05:56:28;98825.63;;;19.58;100.00
35655;BME280;21773;50.010;19.972;2023-10-13T05:59:47;98831.38;;;19.57;100.00
35655;BME280;21773;50.010;19.972;2023-10-13T06:03:08;98828.94;;;19.50;100.00
35655;BME280;21773;50.010;19.972;2023-10-13T06:06:29;98829.25;;;19.49;100.00
35655;BME280;21773;50.010;19.972;2023-10-13T06:09:49;98833.66;;;19.44;100.00
35655;BME280;21773;50.010;19.972;2023-10-13T06:13:13;98835.25;;;19.40;100.00
35655;BME280;21773;50.010;19.972;2023-10-13T06:16:33;98836.88;;;19.41;100.00
35655;BME280;21773;50.010;19.972;2023-10-13T06:19:54;98841.25;;;19.42;100.00
35655;BME280;21773;50.010;19.972;2023-10-13T06:23:15;98837.72;;;19.42;100.00
35655;BME280;21773;50.010;19.972;2023-10-13T06:26:35;98840.19;;;19.43;100.00
35655;BME280;21773;50.010;19.972;2023-10-13T06:29:57;98835.00;;;19.37;100.00
35655;BME280;21773;50.010;19.972;2023-10-13T06:33:00;98855.22;;;19.46;100.00
35655;BME280;21773;50.010;19.972;2023-10-13T06:36:06;98845.94;;;19.47;100.00
35655;BME280;21773;50.010;19.972;2023-10-13T06:39:11;98848.09;;;19.50;100.00
35655;BME280;21773;50.010;19.972;2023-10-13T06:42:37;98852.75;;;19.55;100.00
35655;BME280;21773;50.010;19.972;2023-10-13T06:45:47;98855.19;;;19.56;100.00
35655;BME280;21773;50.010;19.972;2023-10-13T06:49:00;98848.34;;;19.59;100.00
35655;BME280;21773;50.010;19.972;2023-10-13T06:52:04;98849.69;;;19.61;100.00
35655;BME280;21773;50.010;19.972;2023-10-13T06:55:08;98848.84;;;19.66;100.00
35655;BME280;21773;50.010;19.972;2023-10-13T06:58:17;98849.34;;;19.73;100.00
35655;BME280;21773;50.010;19.972;2023-10-13T07:01:27;98843.31;;;19.76;100.00
35655;BME280;21773;50.010;19.972;2023-10-13T07:04:31;98845.47;;;19.84;100.00
35655;BME280;21773;50.010;19.972;2023-10-13T07:07:34;98844.31;;;19.90;100.00
35655;BME280;21773;50.010;19.972;2023-10-13T07:10:38;98848.63;;;20.01;100.00
35655;BME280;21773;50.010;19.972;2023-10-13T07:13:50;98851.56;;;20.10;100.00
35655;BME280;21773;50.010;19.972;2023-10-13T07:17:00;98843.56;;;20.18;100.00
35655;BME280;21773;50.010;19.972;2023-10-13T07:20:05;98842.69;;;20.28;100.00
35655;BME280;21773;50.010;19.972;2023-10-13T07:23:16;98850.03;;;20.38;100.00
35655;BME280;21773;50.010;19.972;2023-10-13T07:26:22;98856.22;;;20.48;100.00
35655;BME280;21773;50.010;19.972;2023-10-13T07:29:26;98849.84;;;20.58;100.00
35655;BME280;21773;50.010;19.972;2023-10-13T07:32:30;98859.38;;;20.65;100.00
35655;BME280;21773;50.010;19.972;2023-10-13T07:35:36;98864.00;;;20.70;100.00
35655;BME280;21773;50.010;19.972;2023-10-13T07:38:39;98862.53;;;20.77;100.00
35655;BME280;21773;50.010;19.972;2023-10-13T07:41:44;98858.06;;;20.87;100.00
35655;BME280;21773;50.010;19.972;2023-10-13T07:44:53;98864.03;;;20.94;100.00
35655;BME280;21773;50.010;19.972;2023-10-13T07:47:59;98857.84;;;21.07;100.00
35655;BME280;21773;50.010;19.972;2023-10-13T07:51:04;98865.00;;;21.32;100.00
35655;BME280;21773;50.010;19.972;2023-10-13T07:54:13;98868.22;;;21.63;100.00
35655;BME280;21773;50.010;19.972;2023-10-13T07:57:23;98867.06;;;21.87;100.00
35655;BME280;21773;50.010;19.972;2023-10-13T08:00:31;98865.50;;;22.19;100.00
35655;BME280;21773;50.010;19.972;2023-10-13T08:03:50;98866.06;;;22.72;100.00
35655;BME280;21773;50.010;19.972;2023-10-13T08:07:06;98865.00;;;23.00;100.00
35655;BME280;21773;50.010;19.972;2023-10-13T08:10:16;98872.25;;;23.10;100.00
35655;BME280;21773;50.010;19.972;2023-10-13T08:13:19;98867.25;;;23.80;100.00
35655;BME280;21773;50.010;19.972;2023-10-13T08:16:23;98861.44;;;24.76;100.00
35655;BME280;21773;50.010;19.972;2023-10-13T08:19:33;98870.31;;;25.26;100.00
35655;BME280;21773;50.010;19.972;2023-10-13T08:22:44;98871.84;;;25.80;100.00
35655;BME280;21773;50.010;19.972;2023-10-13T08:25:49;98870.22;;;26.05;100.00
35655;BME280;21773;50.010;19.972;2023-10-13T08:29:10;98868.78;;;26.16;100.00
35655;BME280;21773;50.010;19.972;2023-10-13T08:32:32;98873.69;;;26.27;100.00
35655;BME280;21773;50.010;19.972;2023-10-13T08:35:47;98870.91;;;26.45;100.00
35655;BME280;21773;50.010;19.972;2023-10-13T08:39:29;98867.81;;;27.36;100.00
35655;BME280;21773;50.010;19.972;2023-10-13T08:42:46;98870.72;;;30.23;100.00
35655;BME280;21773;50.010;19.972;2023-10-13T08:46:11;98873.59;;;32.58;100.00
35655;BME280;21773;50.010;19.972;2023-10-13T08:49:30;98880.84;;;34.78;100.00
35655;BME280;21773;50.010;19.972;2023-10-13T08:52:36;98872.69;;;36.53;97.29
35655;BME280;21773;50.010;19.972;2023-10-13T08:55:48;98874.56;;;38.03;89.86
35655;BME280;21773;50.010;19.972;2023-10-13T08:59:04;98869.31;;;39.13;84.73
35655;BME280;21773;50.010;19.972;2023-10-13T09:02:13;98862.28;;;40.28;79.83
35655;BME280;21773;50.010;19.972;2023-10-13T09:05:20;98865.63;;;41.41;75.96
35655;BME280;21773;50.010;19.972;2023-10-13T09:08:45;98864.25;;;42.42;68.64
35655;BME280;21773;50.010;19.972;2023-10-13T09:12:10;98863.25;;;43.08;59.13
35655;BME280;21773;50.010;19.972;2023-10-13T09:15:15;98855.31;;;43.68;53.68
35655;BME280;21773;50.010;19.972;2023-10-13T09:18:25;98854.25;;;43.61;51.21
35655;BME280;21773;50.010;19.972;2023-10-13T09:21:49;98866.56;;;43.39;50.37
35655;BME280;21773;50.010;19.972;2023-10-13T09:24:59;98865.00;;;43.54;47.08
35655;BME280;21773;50.010;19.972;2023-10-13T09:28:02;98858.34;;;43.93;46.72
35655;BME280;21773;50.010;19.972;2023-10-13T09:31:11;98853.63;;;44.02;51.02
35655;BME280;21773;50.010;19.972;2023-10-13T09:34:22;98846.06;;;43.96;44.58
35655;BME280;21773;50.010;19.972;2023-10-13T09:37:32;98831.97;;;44.50;45.47
35655;BME280;21773;50.010;19.972;2023-10-13T09:40:40;98835.69;;;45.01;45.48
35655;BME280;21773;50.010;19.972;2023-10-13T09:43:48;98831.16;;;45.29;44.26
35655;BME280;21773;50.010;19.972;2023-10-13T09:46:54;98829.91;;;45.43;43.85
35655;BME280;21773;50.010;19.972;2023-10-13T09:50:08;98831.38;;;45.35;41.29
35655;BME280;21773;50.010;19.972;2023-10-13T09:53:27;98826.38;;;45.13;42.64
35655;BME280;21773;50.010;19.972;2023-10-13T09:56:38;98830.66;;;45.56;44.19
35655;BME280;21773;50.010;19.972;2023-10-13T09:59:59;98822.81;;;45.60;43.54
35655;BME280;21773;50.010;19.972;2023-10-13T10:03:12;98830.38;;;45.76;40.88
35655;BME280;21773;50.010;19.972;2023-10-13T10:06:22;98821.72;;;45.92;40.49
35655;BME280;21773;50.010;19.972;2023-10-13T10:09:31;98828.13;;;46.05;40.72
35655;BME280;21773;50.010;19.972;2023-10-13T10:12:43;98825.75;;;45.69;40.23
35655;BME280;21773;50.010;19.972;2023-10-13T10:15:55;98814.41;;;45.44;39.70
35655;BME280;21773;50.010;19.972;2023-10-13T10:19:02;98808.59;;;45.22;39.36
35655;BME280;21773;50.010;19.972;2023-10-13T10:22:05;98798.13;;;45.32;39.84
35655;BME280;21773;50.010;19.972;2023-10-13T10:25:28;98798.66;;;45.64;41.46
35655;BME280;21773;50.010;19.972;2023-10-13T10:28:39;98791.31;;;45.04;41.81
35655;BME280;21773;50.010;19.972;2023-10-13T10:31:44;98778.50;;;44.58;42.54
35655;BME280;21773;50.010;19.972;2023-10-13T10:34:48;98787.94;;;44.42;44.81
35655;BME280;21773;50.010;19.972;2023-10-13T10:37:51;98786.91;;;44.36;44.11
35655;BME280;21773;50.010;19.972;2023-10-13T10:40:57;98773.66;;;44.17;43.69
35655;BME280;21773;50.010;19.972;2023-10-13T10:44:02;98778.28;;;44.11;44.93
35655;BME280;21773;50.010;19.972;2023-10-13T10:47:11;98780.72;;;43.96;45.83
35655;BME280;21773;50.010;19.972;2023-10-13T10:50:25;98774.63;;;42.68;50.25
35655;BME280;21773;50.010;19.972;2023-10-13T10:53:36;98778.69;;;42.47;49.70
35655;BME280;21773;50.010;19.972;2023-10-13T10:56:46;98750.31;;;42.67;52.91
35655;BME280;21773;50.010;19.972;2023-10-13T10:59:55;98755.25;;;42.99;47.64
35655;BME280;21773;50.010;19.972;2023-10-13T11:03:12;98756.53;;;43.30;47.08
35655;BME280;21773;50.010;19.972;2023-10-13T11:06:16;98743.75;;;43.22;46.42
35655;BME280;21773;50.010;19.972;2023-10-13T11:09:25;98758.91;;;43.48;47.06
35655;BME280;21773;50.010;19.972;2023-10-13T11:12:38;98750.28;;;43.51;48.54
35655;BME280;21773;50.010;19.972;2023-10-13T11:15:44;98733.72;;;43.34;46.61
35655;BME280;21773;50.010;19.972;2023-10-13T11:18:47;98737.31;;;43.67;46.64
35655;BME280;21773;50.010;19.972;2023-10-13T11:21:51;98743.94;;;43.76;46.50
35655;BME280;21773;50.010;19.972;2023-10-13T11:24:55;98739.91;;;43.90;46.59
35655;BME280;21773;50.010;19.972;2023-10-13T11:28:10;98734.16;;;43.77;41.80
35655;BME280;21773;50.010;19.972;2023-10-13T11:31:20;98747.16;;;43.62;45.65
35655;BME280;21773;50.010;19.972;2023-10-13T11:34:26;98730.94;;;43.63;46.91
35655;BME280;21773;50.010;19.972;2023-10-13T11:37:41;98728.63;;;42.76;48.06
35655;BME280;21773;50.010;19.972;2023-10-13T11:40:45;98739.97;;;41.15;52.78
35655;BME280;21773;50.010;19.972;2023-10-13T11:44:08;98722.63;;;39.61;60.81
35655;BME280;21773;50.010;19.972;2023-10-13T11:47:27;98731.47;;;39.22;60.86
35655;BME280;21773;50.010;19.972;2023-10-13T11:50:50;98724.97;;;39.32;58.13
35655;BME280;21773;50.010;19.972;2023-10-13T11:53:53;98703.91;;;38.99;61.80
35655;BME280;21773;50.010;19.972;2023-10-13T11:56:57;98722.63;;;38.69;61.80
35655;BME280;21773;50.010;19.972;2023-10-13T12:00:01;98723.28;;;38.90;63.44
35655;BME280;21773;50.010;19.972;2023-10-13T12:03:29;98725.78;;;37.94;66.10
35655;BME280;21773;50.010;19.972;2023-10-13T12:06:50;98711.44;;;37.60;68.18
35655;BME280;21773;50.010;19.972;2023-10-13T12:10:13;98713.44;;;37.53;68.97
35655;BME280;21773;50.010;19.972;2023-10-13T12:13:35;98703.03;;;36.97;72.21
35655;BME280;21773;50.010;19.972;2023-10-13T12:16:41;98702.13;;;36.32;74.86
35655;BME280;21773;50.010;19.972;2023-10-13T12:19:46;98699.66;;;35.37;79.78
35655;BME280;21773;50.010;19.972;2023-10-13T12:22:53;98703.16;;;34.72;83.74
35655;BME280;21773;50.010;19.972;2023-10-13T12:25:57;98694.13;;;34.16;87.37
35655;BME280;21773;50.010;19.972;2023-10-13T12:29:02;98690.53;;;34.15;87.69
35655;BME280;21773;50.010;19.972;2023-10-13T12:32:08;98698.16;;;34.18;87.66
35655;BME280;21773;50.010;19.972;2023-10-13T12:35:15;98697.25;;;34.11;87.71
35655;BME280;21773;50.010;19.972;2023-10-13T12:38:32;98687.59;;;33.71;91.22
35655;BME280;21773;50.010;19.972;2023-10-13T12:42:14;98695.03;;;33.64;92.18
35655;BME280;21773;50.010;19.972;2023-10-13T12:45:38;98677.84;;;33.09;94.92
35655;BME280;21773;50.010;19.972;2023-10-13T12:48:58;98665.22;;;32.24;98.99
35655;BME280;21773;50.010;19.972;2023-10-13T12:52:19;98688.66;;;32.19;99.33
35655;BME280;21773;50.010;19.972;2023-10-13T12:55:22;98680.78;;;31.67;100.00
35655;BME280;21773;50.010;19.972;2023-10-13T12:58:27;98685.06;;;31.46;100.00
35655;BME280;21773;50.010;19.972;2023-10-13T13:01:31;98679.88;;;31.44;100.00
35655;BME280;21773;50.010;19.972;2023-10-13T13:04:36;98668.06;;;31.51;100.00
35655;BME280;21773;50.010;19.972;2023-10-13T13:07:41;98676.41;;;31.86;100.00
35655;BME280;21773;50.010;19.972;2023-10-13T13:10:49;98677.72;;;32.11;100.00
35655;BME280;21773;50.010;19.972;2023-10-13T13:13:54;98672.19;;;32.34;100.00
35655;BME280;21773;50.010;19.972;2023-10-13T13:16:57;98668.03;;;32.24;100.00
35655;BME280;21773;50.010;19.972;2023-10-13T13:20:07;98663.41;;;32.12;100.00
35655;BME280;21773;50.010;19.972;2023-10-13T13:23:28;98656.00;;;31.81;100.00
35655;BME280;21773;50.010;19.972;2023-10-13T13:26:33;98657.47;;;31.75;100.00
35655;BME280;21773;50.010;19.972;2023-10-13T13:29:36;98668.25;;;31.58;100.00
35655;BME280;21773;50.010;19.972;2023-10-13T13:32:39;98664.47;;;31.50;100.00
35655;BME280;21773;50.010;19.972;2023-10-13T13:35:43;98662.38;;;31.63;100.00
35655;BME280;21773;50.010;19.972;2023-10-13T13:38:52;98653.44;;;31.73;100.00
35655;BME280;21773;50.010;19.972;2023-10-13T13:41:56;98651.22;;;31.82;100.00
35655;BME280;21773;50.010;19.972;2023-10-13T13:44:59;98642.72;;;31.75;100.00
35655;BME280;21773;50.010;19.972;2023-10-13T13:48:03;98640.53;;;31.65;100.00
35655;BME280;21773;50.010;19.972;2023-10-13T13:51:10;98639.63;;;31.42;100.00
35655;BME280;21773;50.010;19.972;2023-10-13T13:54:19;98631.56;;;31.36;100.00
35655;BME280;21773;50.010;19.972;2023-10-13T13:57:23;98626.44;;;31.23;100.00
35655;BME280;21773;50.010;19.972;2023-10-13T14:00:26;98627.25;;;30.88;100.00
35655;BME280;21773;50.010;19.972;2023-10-13T14:03:39;98619.00;;;30.45;100.00
35655;BME280;21773;50.010;19.972;2023-10-13T14:06:47;98621.50;;;30.19;100.00
35655;BME280;21773;50.010;19.972;2023-10-13T14:09:53;98620.31;;;30.04;100.00
35655;BME280;21773;50.010;19.972;2023-10-13T14:13:08;98616.84;;;29.79;100.00
35655;BME280;21773;50.010;19.972;2023-10-13T14:16:15;98616.13;;;29.54;100.00
35655;BME280;21773;50.010;19.972;2023-10-13T14:19:22;98614.03;;;29.11;100.00
35655;BME280;21773;50.010;19.972;2023-10-13T14:22:29;98617.91;;;28.82;100.00
35655;BME280;21773;50.010;19.972;2023-10-13T14:25:40;98621.31;;;28.55;100.00
35655;BME280;21773;50.010;19.972;2023-10-13T14:28:46;98610.81;;;28.36;100.00
35655;BME280;21773;50.010;19.972;2023-10-13T14:31:53;98613.41;;;28.09;100.00
35655;BME280;21773;50.010;19.972;2023-10-13T14:34:57;98615.31;;;27.96;100.00
35655;BME280;21773;50.010;19.972;2023-10-13T14:38:02;98617.97;;;27.92;100.00
35655;BME280;21773;50.010;19.972;2023-10-13T14:41:07;98616.00;;;27.93;100.00
35655;BME280;21773;50.010;19.972;2023-10-13T14:44:10;98613.28;;;28.05;100.00
35655;BME280;21773;50.010;19.972;2023-10-13T14:47:14;98603.63;;;28.23;100.00
35655;BME280;21773;50.010;19.972;2023-10-13T14:50:18;98609.41;;;28.18;100.00
35655;BME280;21773;50.010;19.972;2023-10-13T14:53:22;98606.63;;;28.18;100.00
35655;BME280;21773;50.010;19.972;2023-10-13T14:56:27;98598.19;;;28.15;100.00
35655;BME280;21773;50.010;19.972;2023-10-13T14:59:30;98600.28;;;28.18;100.00
35655;BME280;21773;50.010;19.972;2023-10-13T15:02:40;98606.72;;;28.10;100.00
35655;BME280;21773;50.010;19.972;2023-10-13T15:05:45;98592.59;;;27.90;100.00
35655;BME280;21773;50.010;19.972;2023-10-13T15:08:48;98607.09;;;27.87;100.00
35655;BME280;21773;50.010;19.972;2023-10-13T15:11:52;98612.13;;;27.73;100.00
35655;BME280;21773;50.010;19.972;2023-10-13T15:14:55;98608.72;;;27.55;100.00
35655;BME280;21773;50.010;19.972;2023-10-13T15:18:01;98603.44;;;27.42;100.00
35655;BME280;21773;50.010;19.972;2023-10-13T15:21:04;98603.47;;;27.21;100.00
35655;BME280;21773;50.010;19.972;2023-10-13T15:24:10;98599.94;;;26.91;100.00
35655;BME280;21773;50.010;19.972;2023-10-13T15:27:20;98599.34;;;26.77;100.00
35655;BME280;21773;50.010;19.972;2023-10-13T15:30:23;98605.09;;;26.63;100.00
35655;BME280;21773;50.010;19.972;2023-10-13T15:33:28;98592.06;;;26.43;100.00
35655;BME280;21773;50.010;19.972;2023-10-13T15:36:33;98595.50;;;26.32;100.00
35655;BME280;21773;50.010;19.972;2023-10-13T15:39:36;98591.19;;;26.13;100.00
35655;BME280;21773;50.010;19.972;2023-10-13T15:42:43;98577.41;;;25.96;100.00
35655;BME280;21773;50.010;19.972;2023-10-13T15:45:47;98588.38;;;25.75;100.00
35655;BME280;21773;50.010;19.972;2023-10-13T15:48:50;98584.78;;;25.66;100.00
35655;BME280;21773;50.010;19.972;2023-10-13T15:52:14;98576.66;;;25.53;100.00
35655;BME280;21773;50.010;19.972;2023-10-13T15:55:18;98573.28;;;25.38;100.00
35655;BME280;21773;50.010;19.972;2023-10-13T15:58:22;98577.50;;;25.27;100.00
35655;BME280;21773;50.010;19.972;2023-10-13T16:01:27;98581.56;;;25.04;100.00
35655;BME280;21773;50.010;19.972;2023-10-13T16:04:31;98573.91;;;24.92;100.00
35655;BME280;21773;50.010;19.972;2023-10-13T16:07:34;98570.16;;;24.80;100.00
35655;BME280;21773;50.010;19.972;2023-10-13T16:10:39;98569.66;;;24.69;100.00
35655;BME280;21773;50.010;19.972;2023-10-13T16:13:45;98563.47;;;24.64;100.00
35655;BME280;21773;50.010;19.972;2023-10-13T16:16:49;98572.09;;;24.62;100.00
35655;BME280;21773;50.010;19.972;2023-10-13T16:19:55;98565.91;;;24.56;100.00
35655;BME280;21773;50.010;19.972;2023-10-13T16:22:58;98565.69;;;24.44;100.00